Terminal Aerodrome Forecast
Issued by NWS Kansas City/Pleasant Hill, MO

Home | Current Version | Previous Version | Text Only | Print | Product List | Glossary On
Versions: 1 2 3 4 5 6 7 8 9 10 11 12 13 14 15 16 17 18 19 20 21 22 23 24 25 26
000
FTUS43 KEAX 162328
TAFMCI
TAF
KMCI 162328Z 1700/1724 23010KT 6SM -SHRA BR SCT015 OVC035
      TEMPO 1700/1703 4SM BR OVC020
     FM170300 25008KT 5SM BR OVC008
     FM170500 28007KT 3SM BR OVC003
     FM171500 30007KT P6SM OVC005
     FM171800 29008KT P6SM BKN010=

USA.gov is the U.S. government's official web portal to all federal, state and local government web resources and services.